sensor_id;sensor_type;location;lat;lon;timestamp;pressure;altitude;pressure_sealevel;temperature;humidity
70925;BME280;58577;52.410;13.242;2022-10-19T00:00:03;102144.31;;;8.64;100.00
70925;BME280;58577;52.410;13.242;2022-10-19T00:02:50;102137.28;;;8.76;100.00
70925;BME280;58577;52.410;13.242;2022-10-19T00:05:36;102147.34;;;8.72;100.00
70925;BME280;58577;52.410;13.242;2022-10-19T00:08:22;102153.66;;;8.71;100.00
70925;BME280;58577;52.410;13.242;2022-10-19T00:11:08;102155.38;;;8.72;100.00
70925;BME280;58577;52.410;13.242;2022-10-19T00:13:55;102156.22;;;8.73;100.00
70925;BME280;58577;52.410;13.242;2022-10-19T00:16:43;102152.78;;;8.71;100.00
70925;BME280;58577;52.410;13.242;2022-10-19T00:19:30;102146.69;;;8.69;100.00
70925;BME280;58577;52.410;13.242;2022-10-19T00:22:18;102159.03;;;8.71;100.00
70925;BME280;58577;52.410;13.242;2022-10-19T00:25:05;102151.84;;;8.72;100.00
70925;BME280;58577;52.410;13.242;2022-10-19T00:27:51;102146.41;;;8.73;100.00
70925;BME280;58577;52.410;13.242;2022-10-19T00:30:37;102152.50;;;8.75;100.00
70925;BME280;58577;52.410;13.242;2022-10-19T00:33:22;102154.88;;;8.80;100.00
70925;BME280;58577;52.410;13.242;2022-10-19T00:36:17;102151.53;;;8.76;100.00
70925;BME280;58577;52.410;13.242;2022-10-19T00:39:04;102157.09;;;8.73;100.00
70925;BME280;58577;52.410;13.242;2022-10-19T00:41:50;102154.53;;;8.72;100.00
70925;BME280;58577;52.410;13.242;2022-10-19T00:47:22;102154.28;;;8.75;100.00
70925;BME280;58577;52.410;13.242;2022-10-19T00:50:09;102153.44;;;8.74;100.00
70925;BME280;58577;52.410;13.242;2022-10-19T00:52:57;102150.88;;;8.73;100.00
70925;BME280;58577;52.410;13.242;2022-10-19T00:55:44;102147.34;;;8.72;100.00
70925;BME280;58577;52.410;13.242;2022-10-19T00:58:30;102150.78;;;8.74;100.00
70925;BME280;58577;52.410;13.242;2022-10-19T01:01:19;102154.00;;;8.79;100.00
70925;BME280;58577;52.410;13.242;2022-10-19T01:04:07;102149.69;;;8.77;100.00
70925;BME280;58577;52.410;13.242;2022-10-19T01:06:54;102149.25;;;8.70;100.00
70925;BME280;58577;52.410;13.242;2022-10-19T01:09:41;102146.50;;;8.72;100.00
70925;BME280;58577;52.410;13.242;2022-10-19T01:15:47;102144.56;;;8.74;100.00
70925;BME280;58577;52.410;13.242;2022-10-19T01:18:44;102142.00;;;8.72;100.00
70925;BME280;58577;52.410;13.242;2022-10-19T01:21:47;102147.91;;;8.77;100.00
70925;BME280;58577;52.410;13.242;2022-10-19T01:27:34;102136.22;;;8.78;100.00
70925;BME280;58577;52.410;13.242;2022-10-19T01:30:56;102130.84;;;8.65;100.00
70925;BME280;58577;52.410;13.242;2022-10-19T01:36:49;102123.06;;;8.75;100.00
70925;BME280;58577;52.410;13.242;2022-10-19T01:39:43;102126.69;;;8.74;100.00
70925;BME280;58577;52.410;13.242;2022-10-19T01:45:53;102126.59;;;8.76;100.00
70925;BME280;58577;52.410;13.242;2022-10-19T01:48:49;102124.00;;;8.74;100.00
70925;BME280;58577;52.410;13.242;2022-10-19T01:51:45;102120.41;;;8.75;100.00
70925;BME280;58577;52.410;13.242;2022-10-19T01:54:38;102123.06;;;8.75;100.00
70925;BME280;58577;52.410;13.242;2022-10-19T01:57:32;102119.06;;;8.68;100.00
70925;BME280;58577;52.410;13.242;2022-10-19T02:00:21;102112.22;;;8.64;100.00
70925;BME280;58577;52.410;13.242;2022-10-19T02:03:09;102114.66;;;8.67;100.00
70925;BME280;58577;52.410;13.242;2022-10-19T02:05:56;102111.47;;;8.62;100.00
70925;BME280;58577;52.410;13.242;2022-10-19T02:08:48;102097.59;;;8.55;100.00
70925;BME280;58577;52.410;13.242;2022-10-19T02:11:35;102102.94;;;8.55;100.00
70925;BME280;58577;52.410;13.242;2022-10-19T02:14:25;102098.47;;;8.56;100.00
70925;BME280;58577;52.410;13.242;2022-10-19T02:17:16;102094.00;;;8.56;100.00
70925;BME280;58577;52.410;13.242;2022-10-19T02:20:04;102100.66;;;8.63;100.00
70925;BME280;58577;52.410;13.242;2022-10-19T02:22:50;102104.09;;;8.65;100.00
70925;BME280;58577;52.410;13.242;2022-10-19T02:25:36;102111.38;;;8.76;100.00
70925;BME280;58577;52.410;13.242;2022-10-19T02:28:21;102114.06;;;8.76;100.00
70925;BME280;58577;52.410;13.242;2022-10-19T02:31:08;102113.13;;;8.77;100.00
70925;BME280;58577;52.410;13.242;2022-10-19T02:33:54;102101.94;;;8.71;100.00
70925;BME280;58577;52.410;13.242;2022-10-19T02:36:40;102104.63;;;8.71;100.00
70925;BME280;58577;52.410;13.242;2022-10-19T02:39:26;102105.50;;;8.71;100.00
70925;BME280;58577;52.410;13.242;2022-10-19T02:42:16;102111.03;;;8.68;100.00
70925;BME280;58577;52.410;13.242;2022-10-19T02:45:16;102103.44;;;8.75;100.00
70925;BME280;58577;52.410;13.242;2022-10-19T02:48:07;102107.53;;;8.80;100.00
70925;BME280;58577;52.410;13.242;2022-10-19T02:50:54;102108.84;;;8.88;100.00
70925;BME280;58577;52.410;13.242;2022-10-19T02:53:40;102108.25;;;8.97;100.00
70925;BME280;58577;52.410;13.242;2022-10-19T02:56:26;102102.91;;;8.97;100.00
70925;BME280;58577;52.410;13.242;2022-10-19T02:59:11;102100.81;;;8.88;100.00
70925;BME280;58577;52.410;13.242;2022-10-19T03:01:57;102109.50;;;8.91;100.00
70925;BME280;58577;52.410;13.242;2022-10-19T03:04:43;102109.50;;;8.91;100.00
70925;BME280;58577;52.410;13.242;2022-10-19T03:07:29;102112.50;;;8.87;100.00
70925;BME280;58577;52.410;13.242;2022-10-19T03:10:15;102113.66;;;8.82;100.00
70925;BME280;58577;52.410;13.242;2022-10-19T03:13:01;102118.25;;;8.80;100.00
70925;BME280;58577;52.410;13.242;2022-10-19T03:15:47;102117.88;;;8.87;100.00
70925;BME280;58577;52.410;13.242;2022-10-19T03:18:32;102117.31;;;8.81;100.00
70925;BME280;58577;52.410;13.242;2022-10-19T03:21:18;102119.00;;;8.82;100.00
70925;BME280;58577;52.410;13.242;2022-10-19T03:24:04;102113.56;;;8.84;100.00
70925;BME280;58577;52.410;13.242;2022-10-19T03:26:50;102120.16;;;8.78;100.00
70925;BME280;58577;52.410;13.242;2022-10-19T03:29:36;102129.72;;;8.82;100.00
70925;BME280;58577;52.410;13.242;2022-10-19T03:32:22;102127.03;;;8.82;100.00
70925;BME280;58577;52.410;13.242;2022-10-19T03:35:08;102123.66;;;8.93;100.00
70925;BME280;58577;52.410;13.242;2022-10-19T03:37:53;102133.94;;;8.87;100.00
70925;BME280;58577;52.410;13.242;2022-10-19T03:40:39;102130.41;;;8.99;100.00
70925;BME280;58577;52.410;13.242;2022-10-19T03:43:25;102139.41;;;8.98;100.00
70925;BME280;58577;52.410;13.242;2022-10-19T03:46:11;102135.25;;;9.07;100.00
70925;BME280;58577;52.410;13.242;2022-10-19T03:48:57;102148.94;;;9.02;100.00
70925;BME280;58577;52.410;13.242;2022-10-19T03:51:43;102144.66;;;8.99;100.00
70925;BME280;58577;52.410;13.242;2022-10-19T03:54:29;102146.25;;;9.02;100.00
70925;BME280;58577;52.410;13.242;2022-10-19T03:57:15;102145.06;;;8.93;100.00
70925;BME280;58577;52.410;13.242;2022-10-19T04:00:00;102142.28;;;8.95;100.00
70925;BME280;58577;52.410;13.242;2022-10-19T04:02:47;102150.50;;;8.92;100.00
70925;BME280;58577;52.410;13.242;2022-10-19T04:05:32;102158.34;;;8.95;100.00
70925;BME280;58577;52.410;13.242;2022-10-19T04:08:18;102151.59;;;9.02;100.00
70925;BME280;58577;52.410;13.242;2022-10-19T04:11:08;102154.19;;;9.03;100.00
70925;BME280;58577;52.410;13.242;2022-10-19T04:13:56;102163.53;;;9.11;100.00
70925;BME280;58577;52.410;13.242;2022-10-19T04:16:42;102166.13;;;9.12;100.00
70925;BME280;58577;52.410;13.242;2022-10-19T04:19:27;102161.56;;;9.00;100.00
70925;BME280;58577;52.410;13.242;2022-10-19T04:22:14;102169.47;;;9.16;100.00
70925;BME280;58577;52.410;13.242;2022-10-19T04:25:00;102160.25;;;9.20;100.00
70925;BME280;58577;52.410;13.242;2022-10-19T04:27:45;102158.28;;;9.09;100.00
70925;BME280;58577;52.410;13.242;2022-10-19T04:30:31;102151.31;;;9.07;100.00
70925;BME280;58577;52.410;13.242;2022-10-19T04:33:17;102162.13;;;9.05;100.00
70925;BME280;58577;52.410;13.242;2022-10-19T04:36:05;102161.72;;;9.11;100.00
70925;BME280;58577;52.410;13.242;2022-10-19T04:38:51;102165.13;;;9.00;100.00
70925;BME280;58577;52.410;13.242;2022-10-19T04:41:37;102168.00;;;8.97;100.00
70925;BME280;58577;52.410;13.242;2022-10-19T04:44:23;102177.44;;;9.03;100.00
70925;BME280;58577;52.410;13.242;2022-10-19T04:47:08;102161.97;;;8.94;100.00
70925;BME280;58577;52.410;13.242;2022-10-19T04:49:54;102175.69;;;8.89;100.00
70925;BME280;58577;52.410;13.242;2022-10-19T04:52:43;102169.50;;;9.01;100.00
70925;BME280;58577;52.410;13.242;2022-10-19T04:55:29;102172.09;;;9.03;100.00
70925;BME280;58577;52.410;13.242;2022-10-19T04:58:15;102184.38;;;8.93;100.00
70925;BME280;58577;52.410;13.242;2022-10-19T05:01:08;102171.31;;;9.01;100.00
70925;BME280;58577;52.410;13.242;2022-10-19T05:03:56;102178.25;;;8.91;100.00
70925;BME280;58577;52.410;13.242;2022-10-19T05:06:42;102173.41;;;9.10;100.00
70925;BME280;58577;52.410;13.242;2022-10-19T05:09:28;102183.41;;;8.94;100.00
70925;BME280;58577;52.410;13.242;2022-10-19T05:12:14;102173.91;;;9.02;100.00
70925;BME280;58577;52.410;13.242;2022-10-19T05:14:59;102178.00;;;9.08;100.00
70925;BME280;58577;52.410;13.242;2022-10-19T05:17:45;102189.09;;;9.02;100.00
70925;BME280;58577;52.410;13.242;2022-10-19T05:20:31;102199.03;;;9.00;100.00
70925;BME280;58577;52.410;13.242;2022-10-19T05:23:16;102196.94;;;9.05;100.00
70925;BME280;58577;52.410;13.242;2022-10-19T05:28:58;102198.78;;;8.90;100.00
70925;BME280;58577;52.410;13.242;2022-10-19T05:31:45;102205.03;;;8.91;100.00
70925;BME280;58577;52.410;13.242;2022-10-19T05:34:31;102197.94;;;8.90;100.00
70925;BME280;58577;52.410;13.242;2022-10-19T05:37:17;102199.81;;;9.02;100.00
70925;BME280;58577;52.410;13.242;2022-10-19T05:40:03;102200.59;;;9.04;100.00
70925;BME280;58577;52.410;13.242;2022-10-19T05:42:49;102208.06;;;8.99;100.00
70925;BME280;58577;52.410;13.242;2022-10-19T05:45:35;102206.78;;;9.04;100.00
70925;BME280;58577;52.410;13.242;2022-10-19T05:48:20;102201.69;;;9.14;100.00
70925;BME280;58577;52.410;13.242;2022-10-19T05:51:07;102201.69;;;9.14;100.00
70925;BME280;58577;52.410;13.242;2022-10-19T05:53:55;102208.97;;;9.12;100.00
70925;BME280;58577;52.410;13.242;2022-10-19T05:56:42;102218.03;;;9.10;100.00
70925;BME280;58577;52.410;13.242;2022-10-19T05:59:27;102213.00;;;9.05;100.00
70925;BME280;58577;52.410;13.242;2022-10-19T06:02:13;102215.47;;;9.08;100.00
70925;BME280;58577;52.410;13.242;2022-10-19T06:04:59;102221.00;;;9.19;100.00
70925;BME280;58577;52.410;13.242;2022-10-19T06:07:45;102228.72;;;9.24;100.00
70925;BME280;58577;52.410;13.242;2022-10-19T06:10:30;102231.56;;;9.21;100.00
70925;BME280;58577;52.410;13.242;2022-10-19T06:13:17;102229.56;;;9.24;100.00
70925;BME280;58577;52.410;13.242;2022-10-19T06:16:04;102225.53;;;9.32;100.00
70925;BME280;58577;52.410;13.242;2022-10-19T06:18:51;102212.22;;;9.30;100.00
70925;BME280;58577;52.410;13.242;2022-10-19T06:21:37;102236.00;;;9.22;100.00
70925;BME280;58577;52.410;13.242;2022-10-19T06:24:23;102231.16;;;9.27;100.00
70925;BME280;58577;52.410;13.242;2022-10-19T06:27:08;102239.63;;;9.21;100.00
70925;BME280;58577;52.410;13.242;2022-10-19T06:29:54;102230.63;;;9.22;100.00
70925;BME280;58577;52.410;13.242;2022-10-19T06:32:40;102240.50;;;9.21;100.00
70925;BME280;58577;52.410;13.242;2022-10-19T06:35:26;102236.84;;;9.22;100.00
70925;BME280;58577;52.410;13.242;2022-10-19T06:38:11;102237.25;;;9.16;100.00
70925;BME280;58577;52.410;13.242;2022-10-19T06:40:58;102236.66;;;9.25;100.00
70925;BME280;58577;52.410;13.242;2022-10-19T06:43:51;102235.13;;;9.21;100.00
70925;BME280;58577;52.410;13.242;2022-10-19T06:46:37;102234.31;;;9.34;100.00
70925;BME280;58577;52.410;13.242;2022-10-19T06:49:23;102233.47;;;9.33;100.00
70925;BME280;58577;52.410;13.242;2022-10-19T06:52:08;102244.59;;;9.40;100.00
70925;BME280;58577;52.410;13.242;2022-10-19T06:54:54;102242.03;;;9.38;100.00
70925;BME280;58577;52.410;13.242;2022-10-19T06:57:40;102244.19;;;9.46;100.00
70925;BME280;58577;52.410;13.242;2022-10-19T07:00:26;102245.94;;;9.47;100.00
70925;BME280;58577;52.410;13.242;2022-10-19T07:03:12;102244.75;;;9.51;100.00
70925;BME280;58577;52.410;13.242;2022-10-19T07:06:00;102259.66;;;9.55;100.00
70925;BME280;58577;52.410;13.242;2022-10-19T07:08:47;102260.13;;;9.62;100.00
70925;BME280;58577;52.410;13.242;2022-10-19T07:11:33;102255.72;;;9.61;100.00
70925;BME280;58577;52.410;13.242;2022-10-19T07:14:18;102261.72;;;9.64;100.00
70925;BME280;58577;52.410;13.242;2022-10-19T07:17:05;102261.84;;;9.76;100.00
70925;BME280;58577;52.410;13.242;2022-10-19T07:19:51;102266.34;;;9.75;100.00
70925;BME280;58577;52.410;13.242;2022-10-19T07:22:37;102261.63;;;9.79;100.00
70925;BME280;58577;52.410;13.242;2022-10-19T07:25:23;102262.38;;;9.81;100.00
70925;BME280;58577;52.410;13.242;2022-10-19T07:28:09;102279.66;;;9.90;100.00
70925;BME280;58577;52.410;13.242;2022-10-19T07:30:55;102271.53;;;9.91;100.00
70925;BME280;58577;52.410;13.242;2022-10-19T07:33:41;102281.50;;;9.89;100.00
70925;BME280;58577;52.410;13.242;2022-10-19T07:36:28;102269.81;;;9.90;100.00
70925;BME280;58577;52.410;13.242;2022-10-19T07:39:15;102279.03;;;9.99;100.00
70925;BME280;58577;52.410;13.242;2022-10-19T07:42:03;102267.47;;;10.11;100.00
70925;BME280;58577;52.410;13.242;2022-10-19T07:44:49;102268.31;;;10.12;100.00
70925;BME280;58577;52.410;13.242;2022-10-19T07:47:35;102264.78;;;10.24;100.00
70925;BME280;58577;52.410;13.242;2022-10-19T07:50:21;102261.91;;;10.40;100.00
70925;BME280;58577;52.410;13.242;2022-10-19T07:53:09;102259.31;;;10.51;100.00
70925;BME280;58577;52.410;13.242;2022-10-19T07:55:54;102259.97;;;10.55;100.00
70925;BME280;58577;52.410;13.242;2022-10-19T07:58:40;102266.59;;;10.62;100.00
70925;BME280;58577;52.410;13.242;2022-10-19T08:01:32;102278.69;;;10.80;100.00
70925;BME280;58577;52.410;13.242;2022-10-19T08:04:18;102274.06;;;10.82;100.00
70925;BME280;58577;52.410;13.242;2022-10-19T08:07:04;102277.06;;;10.91;100.00
70925;BME280;58577;52.410;13.242;2022-10-19T08:09:49;102291.00;;;10.96;100.00
70925;BME280;58577;52.410;13.242;2022-10-19T08:12:35;102288.03;;;10.88;100.00
70925;BME280;58577;52.410;13.242;2022-10-19T08:15:22;102288.03;;;10.88;100.00
70925;BME280;58577;52.410;13.242;2022-10-19T08:18:07;102291.97;;;10.95;100.00
70925;BME280;58577;52.410;13.242;2022-10-19T08:20:53;102292.22;;;10.92;100.00
70925;BME280;58577;52.410;13.242;2022-10-19T08:23:39;102299.00;;;10.85;100.00
70925;BME280;58577;52.410;13.242;2022-10-19T08:26:30;102293.44;;;10.75;100.00
70925;BME280;58577;52.410;13.242;2022-10-19T08:29:18;102303.16;;;10.89;100.00
70925;BME280;58577;52.410;13.242;2022-10-19T08:32:04;102300.91;;;10.95;100.00
70925;BME280;58577;52.410;13.242;2022-10-19T08:34:50;102300.06;;;10.82;100.00
70925;BME280;58577;52.410;13.242;2022-10-19T08:37:36;102306.94;;;10.86;100.00
70925;BME280;58577;52.410;13.242;2022-10-19T08:40:24;102313.31;;;11.09;100.00
70925;BME280;58577;52.410;13.242;2022-10-19T08:43:19;102305.56;;;11.17;100.00
70925;BME280;58577;52.410;13.242;2022-10-19T08:49:35;102326.88;;;11.32;100.00
70925;BME280;58577;52.410;13.242;2022-10-19T08:52:25;102321.19;;;11.36;100.00
70925;BME280;58577;52.410;13.242;2022-10-19T08:55:14;102324.19;;;11.32;100.00
70925;BME280;58577;52.410;13.242;2022-10-19T08:58:30;102318.38;;;11.38;97.87
70925;BME280;58577;52.410;13.242;2022-10-19T09:04:45;102315.50;;;11.52;96.19
70925;BME280;58577;52.410;13.242;2022-10-19T09:07:35;102328.31;;;11.73;97.22
70925;BME280;58577;52.410;13.242;2022-10-19T09:10:34;102317.66;;;11.95;95.00
70925;BME280;58577;52.410;13.242;2022-10-19T09:13:41;102320.88;;;12.00;94.57
70925;BME280;58577;52.410;13.242;2022-10-19T09:16:28;102327.97;;;12.02;91.89
70925;BME280;58577;52.410;13.242;2022-10-19T09:19:26;102322.47;;;12.03;91.63
70925;BME280;58577;52.410;13.242;2022-10-19T09:22:22;102328.19;;;11.98;91.91
70925;BME280;58577;52.410;13.242;2022-10-19T09:25:20;102330.31;;;12.06;89.94
70925;BME280;58577;52.410;13.242;2022-10-19T09:31:20;102339.44;;;12.84;83.85
70925;BME280;58577;52.410;13.242;2022-10-19T09:34:22;102331.78;;;13.46;86.36
70925;BME280;58577;52.410;13.242;2022-10-19T09:37:10;102322.13;;;13.43;86.32
70925;BME280;58577;52.410;13.242;2022-10-19T09:39:56;102327.75;;;13.29;85.68
70925;BME280;58577;52.410;13.242;2022-10-19T09:42:42;102334.94;;;13.62;83.49
70925;BME280;58577;52.410;13.242;2022-10-19T09:45:34;102352.63;;;13.87;79.08
70925;BME280;58577;52.410;13.242;2022-10-19T09:48:31;102339.28;;;14.28;81.93
70925;BME280;58577;52.410;13.242;2022-10-19T09:51:19;102362.97;;;15.38;75.25
70925;BME280;58577;52.410;13.242;2022-10-19T09:54:05;102383.84;;;15.96;71.66
70925;BME280;58577;52.410;13.242;2022-10-19T09:56:53;102412.25;;;17.15;69.43
70925;BME280;58577;52.410;13.242;2022-10-19T09:59:41;102430.03;;;17.00;64.83
70925;BME280;58577;52.410;13.242;2022-10-19T10:02:31;102355.38;;;15.41;69.53
70925;BME280;58577;52.410;13.242;2022-10-19T10:05:16;102348.09;;;14.51;73.32
70925;BME280;58577;52.410;13.242;2022-10-19T10:08:03;102348.53;;;14.35;74.95
70925;BME280;58577;52.410;13.242;2022-10-19T10:11:07;102370.28;;;13.80;72.47
70925;BME280;58577;52.410;13.242;2022-10-19T10:13:55;102344.31;;;13.47;73.29
70925;BME280;58577;52.410;13.242;2022-10-19T10:16:42;102336.63;;;12.97;74.82
70925;BME280;58577;52.410;13.242;2022-10-19T10:19:30;102333.44;;;12.92;80.52
70925;BME280;58577;52.410;13.242;2022-10-19T10:25:15;102345.44;;;12.54;83.75
70925;BME280;58577;52.410;13.242;2022-10-19T10:28:04;102346.41;;;12.42;85.82
70925;BME280;58577;52.410;13.242;2022-10-19T10:30:43;102346.81;;;12.13;89.47
70925;BME280;58577;52.410;13.242;2022-10-19T10:33:20;102351.28;;;12.25;85.81
70925;BME280;58577;52.410;13.242;2022-10-19T10:35:53;102352.44;;;12.10;88.29
70925;BME280;58577;52.410;13.242;2022-10-19T10:38:45;102350.13;;;12.16;85.41
70925;BME280;58577;52.410;13.242;2022-10-19T10:41:20;102354.06;;;12.24;87.06
70925;BME280;58577;52.410;13.242;2022-10-19T10:44:00;102350.56;;;12.46;86.85
70925;BME280;58577;52.410;13.242;2022-10-19T10:46:58;102357.72;;;12.69;86.72
70925;BME280;58577;52.410;13.242;2022-10-19T10:49:32;102348.63;;;12.82;85.52
70925;BME280;58577;52.410;13.242;2022-10-19T10:52:17;102345.44;;;13.22;85.01
70925;BME280;58577;52.410;13.242;2022-10-19T10:55:01;102340.66;;;13.69;80.68
70925;BME280;58577;52.410;13.242;2022-10-19T10:57:35;102342.50;;;13.68;78.36
70925;BME280;58577;52.410;13.242;2022-10-19T11:00:22;102374.50;;;13.62;73.88
70925;BME280;58577;52.410;13.242;2022-10-19T11:03:25;102340.22;;;13.85;78.35
70925;BME280;58577;52.410;13.242;2022-10-19T11:05:58;102353.53;;;13.65;75.04
70925;BME280;58577;52.410;13.242;2022-10-19T11:08:53;102363.78;;;13.50;73.90
70925;BME280;58577;52.410;13.242;2022-10-19T11:11:29;102349.72;;;13.79;76.44
70925;BME280;58577;52.410;13.242;2022-10-19T11:16:44;102361.84;;;13.30;72.38
70925;BME280;58577;52.410;13.242;2022-10-19T11:19:31;102374.84;;;13.02;72.16
70925;BME280;58577;52.410;13.242;2022-10-19T11:22:15;102344.00;;;12.95;76.77
70925;BME280;58577;52.410;13.242;2022-10-19T11:31:12;102349.97;;;12.53;74.53
70925;BME280;58577;52.410;13.242;2022-10-19T11:36:41;102362.97;;;13.05;70.98
70925;BME280;58577;52.410;13.242;2022-10-19T11:42:56;102329.31;;;13.54;73.11
70925;BME280;58577;52.410;13.242;2022-10-19T11:45:38;102392.97;;;13.89;67.25
70925;BME280;58577;52.410;13.242;2022-10-19T11:48:43;102424.47;;;14.21;64.32
70925;BME280;58577;52.410;13.242;2022-10-19T11:51:54;102412.03;;;14.71;64.27
70925;BME280;58577;52.410;13.242;2022-10-19T11:55:24;102444.38;;;15.04;61.26
70925;BME280;58577;52.410;13.242;2022-10-19T11:58:24;102461.63;;;15.12;59.48
70925;BME280;58577;52.410;13.242;2022-10-19T12:06:38;102458.97;;;15.22;57.91
70925;BME280;58577;52.410;13.242;2022-10-19T12:12:23;102445.72;;;15.60;58.42
70925;BME280;58577;52.410;13.242;2022-10-19T12:14:56;102419.72;;;15.28;58.53
70925;BME280;58577;52.410;13.242;2022-10-19T12:17:46;102447.72;;;14.54;57.24
70925;BME280;58577;52.410;13.242;2022-10-19T12:20:48;102386.44;;;14.24;61.01
70925;BME280;58577;52.410;13.242;2022-10-19T12:23:29;102381.31;;;14.09;62.00
70925;BME280;58577;52.410;13.242;2022-10-19T12:26:18;102357.28;;;14.27;61.78
70925;BME280;58577;52.410;13.242;2022-10-19T12:29:05;102398.03;;;14.57;59.35
70925;BME280;58577;52.410;13.242;2022-10-19T12:31:34;102364.81;;;14.24;61.08
70925;BME280;58577;52.410;13.242;2022-10-19T12:34:25;102325.38;;;14.11;64.53
70925;BME280;58577;52.410;13.242;2022-10-19T12:37:08;102350.72;;;13.99;61.90
70925;BME280;58577;52.410;13.242;2022-10-19T12:39:55;102353.88;;;13.83;62.19
70925;BME280;58577;52.410;13.242;2022-10-19T12:42:55;102335.38;;;13.46;63.36
70925;BME280;58577;52.410;13.242;2022-10-19T12:45:33;102325.94;;;13.18;64.04
70925;BME280;58577;52.410;13.242;2022-10-19T12:48:20;102255.72;;;12.87;69.76
70925;BME280;58577;52.410;13.242;2022-10-19T12:53:34;102334.78;;;13.96;65.18
70925;BME280;58577;52.410;13.242;2022-10-19T12:56:23;102419.00;;;14.11;59.50
70925;BME280;58577;52.410;13.242;2022-10-19T12:58:56;102435.84;;;14.78;57.89
70925;BME280;58577;52.410;13.242;2022-10-19T13:04:23;102465.03;;;14.84;54.66
70925;BME280;58577;52.410;13.242;2022-10-19T13:09:34;102442.09;;;14.57;55.16
70925;BME280;58577;52.410;13.242;2022-10-19T13:15:01;102422.47;;;14.76;55.81
70925;BME280;58577;52.410;13.242;2022-10-19T13:23:01;102360.06;;;13.95;59.24
70925;BME280;58577;52.410;13.242;2022-10-19T13:25:37;102405.03;;;13.73;56.39
70925;BME280;58577;52.410;13.242;2022-10-19T13:36:16;102322.41;;;13.17;60.19
70925;BME280;58577;52.410;13.242;2022-10-19T13:38:45;102276.34;;;13.09;62.67
70925;BME280;58577;52.410;13.242;2022-10-19T13:41:22;102239.78;;;12.84;65.75
70925;BME280;58577;52.410;13.242;2022-10-19T13:47:21;102206.78;;;12.59;70.51
70925;BME280;58577;52.410;13.242;2022-10-19T13:55:45;102239.78;;;12.05;74.07
70925;BME280;58577;52.410;13.242;2022-10-19T13:59:07;102258.75;;;11.92;72.36
70925;BME280;58577;52.410;13.242;2022-10-19T14:02:07;102247.19;;;11.79;73.86
70925;BME280;58577;52.410;13.242;2022-10-19T14:05:13;102265.00;;;11.69;71.18
70925;BME280;58577;52.410;13.242;2022-10-19T14:08:31;102253.69;;;11.52;71.79
70925;BME280;58577;52.410;13.242;2022-10-19T14:11:04;102240.72;;;11.46;75.32
70925;BME280;58577;52.410;13.242;2022-10-19T14:14:16;102247.88;;;11.34;75.21
70925;BME280;58577;52.410;13.242;2022-10-19T14:16:59;102240.50;;;11.25;75.52
70925;BME280;58577;52.410;13.242;2022-10-19T14:19:43;102242.19;;;11.15;76.92
70925;BME280;58577;52.410;13.242;2022-10-19T14:22:32;102235.56;;;10.95;76.85
70925;BME280;58577;52.410;13.242;2022-10-19T14:27:37;102242.97;;;10.67;83.35
70925;BME280;58577;52.410;13.242;2022-10-19T14:32:47;102233.97;;;10.55;81.89
70925;BME280;58577;52.410;13.242;2022-10-19T14:35:22;102241.59;;;10.61;81.99
70925;BME280;58577;52.410;13.242;2022-10-19T14:38:07;102251.03;;;10.67;82.34
70925;BME280;58577;52.410;13.242;2022-10-19T14:40:40;102236.56;;;10.57;85.07
70925;BME280;58577;52.410;13.242;2022-10-19T14:43:29;102232.03;;;10.57;85.57
70925;BME280;58577;52.410;13.242;2022-10-19T14:46:14;102227.75;;;10.55;85.71
70925;BME280;58577;52.410;13.242;2022-10-19T14:48:47;102226.88;;;10.54;86.20
70925;BME280;58577;52.410;13.242;2022-10-19T14:51:27;102219.81;;;10.53;85.31
70925;BME280;58577;52.410;13.242;2022-10-19T14:54:16;102220.13;;;10.49;85.75
70925;BME280;58577;52.410;13.242;2022-10-19T14:56:55;102223.78;;;10.48;87.08
70925;BME280;58577;52.410;13.242;2022-10-19T14:59:28;102222.19;;;10.45;86.60
70925;BME280;58577;52.410;13.242;2022-10-19T15:02:27;102229.72;;;10.40;85.77
70925;BME280;58577;52.410;13.242;2022-10-19T15:04:57;102230.16;;;10.34;85.82
70925;BME280;58577;52.410;13.242;2022-10-19T15:07:27;102221.53;;;10.29;87.70
70925;BME280;58577;52.410;13.242;2022-10-19T15:10:37;102220.69;;;10.28;84.98
70925;BME280;58577;52.410;13.242;2022-10-19T15:13:05;102216.72;;;10.21;85.71
70925;BME280;58577;52.410;13.242;2022-10-19T15:15:33;102223.47;;;10.14;87.12
70925;BME280;58577;52.410;13.242;2022-10-19T15:18:18;102225.72;;;10.07;88.29
70925;BME280;58577;52.410;13.242;2022-10-19T15:20:59;102227.03;;;10.01;89.27
70925;BME280;58577;52.410;13.242;2022-10-19T15:23:47;102233.75;;;9.94;90.95
70925;BME280;58577;52.410;13.242;2022-10-19T15:26:32;102228.63;;;9.91;91.35
70925;BME280;58577;52.410;13.242;2022-10-19T15:29:27;102235.19;;;9.87;92.51
70925;BME280;58577;52.410;13.242;2022-10-19T15:32:15;102237.84;;;9.87;92.20
70925;BME280;58577;52.410;13.242;2022-10-19T15:35:09;102231.94;;;9.82;94.54
70925;BME280;58577;52.410;13.242;2022-10-19T15:38:07;102232.13;;;9.79;97.41
70925;BME280;58577;52.410;13.242;2022-10-19T15:40:59;102227.22;;;9.73;98.55
70925;BME280;58577;52.410;13.242;2022-10-19T15:43:53;102223.88;;;9.56;97.51
70925;BME280;58577;52.410;13.242;2022-10-19T15:52:27;102226.47;;;9.31;97.36
70925;BME280;58577;52.410;13.242;2022-10-19T15:55:13;102231.56;;;9.21;97.41
70925;BME280;58577;52.410;13.242;2022-10-19T15:58:01;102231.44;;;9.10;100.00
70925;BME280;58577;52.410;13.242;2022-10-19T16:00:47;102234.06;;;8.97;100.00